sensor_id;sensor_type;location;lat;lon;timestamp;P1;durP1;ratioP1;P2;durP2;ratioP2
50549;SDS011;36505;52.512;13.460;2023-06-22T00:01:09;10.50;;;8.57;;
50549;SDS011;36505;52.512;13.460;2023-06-22T00:03:34;11.55;;;8.98;;
50549;SDS011;36505;52.512;13.460;2023-06-22T00:06:00;13.63;;;9.13;;
50549;SDS011;36505;52.512;13.460;2023-06-22T00:08:25;12.00;;;8.10;;
50549;SDS011;36505;52.512;13.460;2023-06-22T00:10:51;11.90;;;8.02;;
50549;SDS011;36505;52.512;13.460;2023-06-22T00:13:16;12.52;;;8.55;;
50549;SDS011;36505;52.512;13.460;2023-06-22T00:15:42;10.75;;;8.07;;
50549;SDS011;36505;52.512;13.460;2023-06-22T00:18:09;11.38;;;7.72;;
50549;SDS011;36505;52.512;13.460;2023-06-22T00:20:35;12.60;;;8.65;;
50549;SDS011;36505;52.512;13.460;2023-06-22T00:23:05;11.02;;;8.38;;
50549;SDS011;36505;52.512;13.460;2023-06-22T00:25:39;14.32;;;8.80;;
50549;SDS011;36505;52.512;13.460;2023-06-22T00:28:05;11.02;;;8.48;;
50549;SDS011;36505;52.512;13.460;2023-06-22T00:30:31;12.82;;;7.80;;
50549;SDS011;36505;52.512;13.460;2023-06-22T00:32:57;13.25;;;8.52;;
50549;SDS011;36505;52.512;13.460;2023-06-22T00:35:23;10.93;;;8.45;;
50549;SDS011;36505;52.512;13.460;2023-06-22T00:37:53;10.80;;;8.13;;
50549;SDS011;36505;52.512;13.460;2023-06-22T00:40:25;10.02;;;7.85;;
50549;SDS011;36505;52.512;13.460;2023-06-22T00:42:51;12.85;;;8.15;;
50549;SDS011;36505;52.512;13.460;2023-06-22T00:45:16;10.10;;;8.48;;
50549;SDS011;36505;52.512;13.460;2023-06-22T00:47:41;13.65;;;8.43;;
50549;SDS011;36505;52.512;13.460;2023-06-22T00:50:08;12.63;;;8.20;;
50549;SDS011;36505;52.512;13.460;2023-06-22T00:52:38;11.82;;;8.18;;
50549;SDS011;36505;52.512;13.460;2023-06-22T00:55:08;14.75;;;8.60;;
50549;SDS011;36505;52.512;13.460;2023-06-22T00:57:34;12.95;;;8.90;;
50549;SDS011;36505;52.512;13.460;2023-06-22T01:00:02;12.45;;;8.38;;
50549;SDS011;36505;52.512;13.460;2023-06-22T01:02:31;12.88;;;9.70;;
50549;SDS011;36505;52.512;13.460;2023-06-22T01:04:57;15.75;;;8.55;;
50549;SDS011;36505;52.512;13.460;2023-06-22T01:07:34;12.00;;;8.70;;
50549;SDS011;36505;52.512;13.460;2023-06-22T01:10:17;13.00;;;8.85;;
50549;SDS011;36505;52.512;13.460;2023-06-22T01:12:51;13.30;;;8.93;;
50549;SDS011;36505;52.512;13.460;2023-06-22T01:15:24;11.95;;;8.70;;
50549;SDS011;36505;52.512;13.460;2023-06-22T01:17:56;12.13;;;9.52;;
50549;SDS011;36505;52.512;13.460;2023-06-22T01:20:23;12.70;;;9.20;;
50549;SDS011;36505;52.512;13.460;2023-06-22T01:31:28;16.13;;;9.75;;
50549;SDS011;36505;52.512;13.460;2023-06-22T01:34:00;14.43;;;10.60;;
50549;SDS011;36505;52.512;13.460;2023-06-22T01:36:28;17.00;;;10.50;;
50549;SDS011;36505;52.512;13.460;2023-06-22T01:38:55;12.82;;;9.70;;
50549;SDS011;36505;52.512;13.460;2023-06-22T01:41:24;16.00;;;10.52;;
50549;SDS011;36505;52.512;13.460;2023-06-22T01:43:51;14.15;;;10.77;;
50549;SDS011;36505;52.512;13.460;2023-06-22T01:46:18;16.92;;;10.82;;
50549;SDS011;36505;52.512;13.460;2023-06-22T01:48:45;17.27;;;11.02;;
50549;SDS011;36505;52.512;13.460;2023-06-22T01:51:11;14.13;;;10.70;;
50549;SDS011;36505;52.512;13.460;2023-06-22T01:53:37;16.38;;;10.38;;
50549;SDS011;36505;52.512;13.460;2023-06-22T01:56:02;17.85;;;11.88;;
50549;SDS011;36505;52.512;13.460;2023-06-22T01:58:29;15.38;;;11.57;;
50549;SDS011;36505;52.512;13.460;2023-06-22T02:01:14;16.90;;;11.40;;
50549;SDS011;36505;52.512;13.460;2023-06-22T02:03:51;18.00;;;11.80;;
50549;SDS011;36505;52.512;13.460;2023-06-22T02:06:27;16.75;;;11.65;;
50549;SDS011;36505;52.512;13.460;2023-06-22T02:09:04;28.00;;;12.52;;
50549;SDS011;36505;52.512;13.460;2023-06-22T02:11:33;19.05;;;11.98;;
50549;SDS011;36505;52.512;13.460;2023-06-22T02:14:00;17.88;;;11.93;;
50549;SDS011;36505;52.512;13.460;2023-06-22T02:16:26;19.60;;;12.20;;
50549;SDS011;36505;52.512;13.460;2023-06-22T02:18:54;18.67;;;12.23;;
50549;SDS011;36505;52.512;13.460;2023-06-22T02:21:20;18.48;;;12.40;;
50549;SDS011;36505;52.512;13.460;2023-06-22T02:23:46;22.23;;;12.98;;
50549;SDS011;36505;52.512;13.460;2023-06-22T02:26:12;18.52;;;13.00;;
50549;SDS011;36505;52.512;13.460;2023-06-22T02:28:38;19.55;;;11.90;;
50549;SDS011;36505;52.512;13.460;2023-06-22T02:31:03;18.13;;;12.15;;
50549;SDS011;36505;52.512;13.460;2023-06-22T02:33:29;22.42;;;12.18;;
50549;SDS011;36505;52.512;13.460;2023-06-22T02:35:54;16.70;;;12.77;;
50549;SDS011;36505;52.512;13.460;2023-06-22T02:38:20;16.17;;;12.05;;
50549;SDS011;36505;52.512;13.460;2023-06-22T02:40:46;16.17;;;12.45;;
50549;SDS011;36505;52.512;13.460;2023-06-22T02:43:12;18.40;;;12.50;;
50549;SDS011;36505;52.512;13.460;2023-06-22T02:45:38;15.27;;;12.65;;
50549;SDS011;36505;52.512;13.460;2023-06-22T02:48:03;20.52;;;12.65;;
50549;SDS011;36505;52.512;13.460;2023-06-22T02:50:29;20.88;;;12.52;;
50549;SDS011;36505;52.512;13.460;2023-06-22T02:52:54;19.65;;;13.20;;
50549;SDS011;36505;52.512;13.460;2023-06-22T02:55:20;17.30;;;13.77;;
50549;SDS011;36505;52.512;13.460;2023-06-22T02:57:45;18.10;;;12.18;;
50549;SDS011;36505;52.512;13.460;2023-06-22T03:00:13;18.33;;;12.32;;
50549;SDS011;36505;52.512;13.460;2023-06-22T03:02:46;17.13;;;12.43;;
50549;SDS011;36505;52.512;13.460;2023-06-22T03:05:12;21.08;;;12.45;;
50549;SDS011;36505;52.512;13.460;2023-06-22T03:07:42;17.98;;;12.23;;
50549;SDS011;36505;52.512;13.460;2023-06-22T03:10:11;18.75;;;12.57;;
50549;SDS011;36505;52.512;13.460;2023-06-22T03:12:38;16.35;;;11.05;;
50549;SDS011;36505;52.512;13.460;2023-06-22T03:15:07;19.25;;;10.77;;
50549;SDS011;36505;52.512;13.460;2023-06-22T03:17:34;13.70;;;10.60;;
50549;SDS011;36505;52.512;13.460;2023-06-22T03:20:01;15.75;;;9.93;;
50549;SDS011;36505;52.512;13.460;2023-06-22T03:22:33;17.95;;;10.32;;
50549;SDS011;36505;52.512;13.460;2023-06-22T03:24:59;14.73;;;9.95;;
50549;SDS011;36505;52.512;13.460;2023-06-22T03:27:24;13.15;;;10.07;;
50549;SDS011;36505;52.512;13.460;2023-06-22T03:29:50;18.45;;;10.00;;
50549;SDS011;36505;52.512;13.460;2023-06-22T03:32:15;12.88;;;9.15;;
50549;SDS011;36505;52.512;13.460;2023-06-22T03:34:41;12.35;;;8.90;;
50549;SDS011;36505;52.512;13.460;2023-06-22T03:37:12;12.95;;;9.45;;
50549;SDS011;36505;52.512;13.460;2023-06-22T03:39:41;13.93;;;10.48;;
50549;SDS011;36505;52.512;13.460;2023-06-22T03:42:06;11.80;;;9.13;;
50549;SDS011;36505;52.512;13.460;2023-06-22T03:44:32;12.38;;;9.30;;
50549;SDS011;36505;52.512;13.460;2023-06-22T03:46:57;12.18;;;8.73;;
50549;SDS011;36505;52.512;13.460;2023-06-22T03:49:23;13.05;;;8.63;;
50549;SDS011;36505;52.512;13.460;2023-06-22T03:51:48;14.82;;;8.25;;
50549;SDS011;36505;52.512;13.460;2023-06-22T03:54:14;12.82;;;7.40;;
50549;SDS011;36505;52.512;13.460;2023-06-22T03:56:39;17.88;;;8.10;;
50549;SDS011;36505;52.512;13.460;2023-06-22T03:59:04;10.70;;;7.18;;
50549;SDS011;36505;52.512;13.460;2023-06-22T04:01:30;11.30;;;7.85;;
50549;SDS011;36505;52.512;13.460;2023-06-22T04:03:55;10.70;;;7.10;;
50549;SDS011;36505;52.512;13.460;2023-06-22T04:06:20;9.55;;;6.80;;
50549;SDS011;36505;52.512;13.460;2023-06-22T04:08:47;9.55;;;6.30;;
50549;SDS011;36505;52.512;13.460;2023-06-22T04:11:16;11.38;;;6.38;;
50549;SDS011;36505;52.512;13.460;2023-06-22T04:13:43;12.20;;;6.20;;
50549;SDS011;36505;52.512;13.460;2023-06-22T04:16:08;11.50;;;6.35;;
50549;SDS011;36505;52.512;13.460;2023-06-22T04:18:34;10.23;;;6.05;;
50549;SDS011;36505;52.512;13.460;2023-06-22T04:20:59;8.05;;;5.47;;
50549;SDS011;36505;52.512;13.460;2023-06-22T04:23:24;7.88;;;5.05;;
50549;SDS011;36505;52.512;13.460;2023-06-22T04:25:50;9.52;;;5.45;;
50549;SDS011;36505;52.512;13.460;2023-06-22T04:28:16;8.52;;;5.15;;
50549;SDS011;36505;52.512;13.460;2023-06-22T04:30:41;9.07;;;5.45;;
50549;SDS011;36505;52.512;13.460;2023-06-22T04:33:14;11.27;;;4.85;;
50549;SDS011;36505;52.512;13.460;2023-06-22T04:35:40;10.63;;;5.18;;
50549;SDS011;36505;52.512;13.460;2023-06-22T04:38:09;8.90;;;5.03;;
50549;SDS011;36505;52.512;13.460;2023-06-22T04:40:34;10.35;;;5.18;;
50549;SDS011;36505;52.512;13.460;2023-06-22T04:42:59;10.43;;;5.03;;
50549;SDS011;36505;52.512;13.460;2023-06-22T04:45:27;8.73;;;5.93;;
50549;SDS011;36505;52.512;13.460;2023-06-22T04:47:54;12.65;;;6.18;;
50549;SDS011;36505;52.512;13.460;2023-06-22T04:50:19;10.13;;;5.30;;
50549;SDS011;36505;52.512;13.460;2023-06-22T04:52:46;7.65;;;4.63;;
50549;SDS011;36505;52.512;13.460;2023-06-22T04:55:12;8.00;;;4.65;;
50549;SDS011;36505;52.512;13.460;2023-06-22T04:57:37;8.27;;;4.85;;
50549;SDS011;36505;52.512;13.460;2023-06-22T05:00:04;7.15;;;4.65;;
50549;SDS011;36505;52.512;13.460;2023-06-22T05:02:40;8.98;;;4.47;;
50549;SDS011;36505;52.512;13.460;2023-06-22T05:05:06;13.45;;;5.78;;
50549;SDS011;36505;52.512;13.460;2023-06-22T05:07:34;9.02;;;4.55;;
50549;SDS011;36505;52.512;13.460;2023-06-22T05:10:01;10.48;;;4.82;;
50549;SDS011;36505;52.512;13.460;2023-06-22T05:12:27;9.95;;;5.15;;
50549;SDS011;36505;52.512;13.460;2023-06-22T05:14:53;9.43;;;5.18;;
50549;SDS011;36505;52.512;13.460;2023-06-22T05:17:19;5.95;;;4.60;;
50549;SDS011;36505;52.512;13.460;2023-06-22T05:19:44;11.25;;;5.60;;
50549;SDS011;36505;52.512;13.460;2023-06-22T05:22:16;7.60;;;4.80;;
50549;SDS011;36505;52.512;13.460;2023-06-22T05:24:42;8.40;;;4.82;;
50549;SDS011;36505;52.512;13.460;2023-06-22T05:27:07;11.77;;;4.82;;
50549;SDS011;36505;52.512;13.460;2023-06-22T05:29:33;11.48;;;5.63;;
50549;SDS011;36505;52.512;13.460;2023-06-22T05:31:58;8.70;;;5.75;;
50549;SDS011;36505;52.512;13.460;2023-06-22T05:34:24;10.20;;;5.15;;
50549;SDS011;36505;52.512;13.460;2023-06-22T05:36:49;8.30;;;4.72;;
50549;SDS011;36505;52.512;13.460;2023-06-22T05:39:14;8.20;;;4.95;;
50549;SDS011;36505;52.512;13.460;2023-06-22T05:41:40;12.13;;;4.90;;
50549;SDS011;36505;52.512;13.460;2023-06-22T05:44:06;12.38;;;5.72;;
50549;SDS011;36505;52.512;13.460;2023-06-22T05:46:32;9.90;;;5.70;;
50549;SDS011;36505;52.512;13.460;2023-06-22T05:48:57;12.52;;;5.93;;
50549;SDS011;36505;52.512;13.460;2023-06-22T05:51:23;8.65;;;5.88;;
50549;SDS011;36505;52.512;13.460;2023-06-22T05:53:48;9.02;;;5.53;;
50549;SDS011;36505;52.512;13.460;2023-06-22T05:56:15;13.00;;;6.30;;
50549;SDS011;36505;52.512;13.460;2023-06-22T05:58:41;10.80;;;5.80;;
50549;SDS011;36505;52.512;13.460;2023-06-22T06:01:06;7.80;;;5.28;;
50549;SDS011;36505;52.512;13.460;2023-06-22T06:03:31;8.80;;;4.60;;
50549;SDS011;36505;52.512;13.460;2023-06-22T06:05:57;5.25;;;4.30;;
50549;SDS011;36505;52.512;13.460;2023-06-22T06:08:22;7.82;;;5.00;;
50549;SDS011;36505;52.512;13.460;2023-06-22T06:10:48;8.98;;;5.18;;
50549;SDS011;36505;52.512;13.460;2023-06-22T06:13:13;9.23;;;4.85;;
50549;SDS011;36505;52.512;13.460;2023-06-22T06:15:39;10.13;;;4.50;;
50549;SDS011;36505;52.512;13.460;2023-06-22T06:18:05;8.52;;;4.10;;
50549;SDS011;36505;52.512;13.460;2023-06-22T06:20:31;11.07;;;4.75;;
50549;SDS011;36505;52.512;13.460;2023-06-22T06:22:57;6.38;;;4.40;;
50549;SDS011;36505;52.512;13.460;2023-06-22T06:25:22;8.68;;;4.13;;
50549;SDS011;36505;52.512;13.460;2023-06-22T06:27:49;6.13;;;4.10;;
50549;SDS011;36505;52.512;13.460;2023-06-22T06:30:16;11.65;;;4.05;;
50549;SDS011;36505;52.512;13.460;2023-06-22T06:32:43;8.68;;;3.75;;
50549;SDS011;36505;52.512;13.460;2023-06-22T06:35:11;7.05;;;3.92;;
50549;SDS011;36505;52.512;13.460;2023-06-22T06:37:39;5.68;;;3.92;;
50549;SDS011;36505;52.512;13.460;2023-06-22T06:40:07;6.93;;;3.60;;
50549;SDS011;36505;52.512;13.460;2023-06-22T06:42:35;5.95;;;3.53;;
50549;SDS011;36505;52.512;13.460;2023-06-22T06:45:06;6.07;;;2.95;;
50549;SDS011;36505;52.512;13.460;2023-06-22T06:47:33;5.63;;;2.90;;
50549;SDS011;36505;52.512;13.460;2023-06-22T06:49:58;8.00;;;3.20;;
50549;SDS011;36505;52.512;13.460;2023-06-22T06:52:24;6.25;;;2.70;;
50549;SDS011;36505;52.512;13.460;2023-06-22T06:54:50;6.20;;;2.97;;
50549;SDS011;36505;52.512;13.460;2023-06-22T06:57:17;7.82;;;2.95;;
50549;SDS011;36505;52.512;13.460;2023-06-22T06:59:43;6.50;;;2.67;;
50549;SDS011;36505;52.512;13.460;2023-06-22T07:02:08;5.22;;;2.90;;
50549;SDS011;36505;52.512;13.460;2023-06-22T07:04:33;6.10;;;3.40;;
50549;SDS011;36505;52.512;13.460;2023-06-22T07:07:00;4.95;;;3.08;;
50549;SDS011;36505;52.512;13.460;2023-06-22T07:09:27;10.60;;;3.20;;
50549;SDS011;36505;52.512;13.460;2023-06-22T07:11:52;5.15;;;3.38;;
50549;SDS011;36505;52.512;13.460;2023-06-22T07:14:17;6.82;;;3.25;;
50549;SDS011;36505;52.512;13.460;2023-06-22T07:16:43;4.10;;;2.58;;
50549;SDS011;36505;52.512;13.460;2023-06-22T07:19:11;8.25;;;3.22;;
50549;SDS011;36505;52.512;13.460;2023-06-22T07:21:37;4.43;;;2.83;;
50549;SDS011;36505;52.512;13.460;2023-06-22T07:24:02;7.78;;;3.30;;
50549;SDS011;36505;52.512;13.460;2023-06-22T07:26:27;11.35;;;3.58;;
50549;SDS011;36505;52.512;13.460;2023-06-22T07:28:53;4.20;;;2.75;;
50549;SDS011;36505;52.512;13.460;2023-06-22T07:31:18;9.95;;;2.65;;
50549;SDS011;36505;52.512;13.460;2023-06-22T07:33:44;6.90;;;2.60;;
50549;SDS011;36505;52.512;13.460;2023-06-22T07:36:09;4.25;;;2.40;;
50549;SDS011;36505;52.512;13.460;2023-06-22T07:38:34;5.22;;;2.55;;
50549;SDS011;36505;52.512;13.460;2023-06-22T07:41:00;5.78;;;2.47;;
50549;SDS011;36505;52.512;13.460;2023-06-22T07:43:27;4.82;;;1.92;;
50549;SDS011;36505;52.512;13.460;2023-06-22T07:45:55;6.95;;;2.47;;
50549;SDS011;36505;52.512;13.460;2023-06-22T07:48:20;3.55;;;2.42;;
50549;SDS011;36505;52.512;13.460;2023-06-22T07:50:46;4.40;;;2.17;;
50549;SDS011;36505;52.512;13.460;2023-06-22T07:53:12;4.78;;;1.98;;
50549;SDS011;36505;52.512;13.460;2023-06-22T07:55:37;7.57;;;2.53;;
50549;SDS011;36505;52.512;13.460;2023-06-22T07:58:02;2.97;;;2.08;;
50549;SDS011;36505;52.512;13.460;2023-06-22T08:00:28;3.75;;;2.03;;
50549;SDS011;36505;52.512;13.460;2023-06-22T08:02:53;3.60;;;1.90;;
50549;SDS011;36505;52.512;13.460;2023-06-22T08:05:19;3.97;;;2.30;;
50549;SDS011;36505;52.512;13.460;2023-06-22T08:07:44;5.13;;;2.25;;
50549;SDS011;36505;52.512;13.460;2023-06-22T08:10:10;6.72;;;2.10;;
50549;SDS011;36505;52.512;13.460;2023-06-22T08:12:36;3.83;;;2.28;;
50549;SDS011;36505;52.512;13.460;2023-06-22T08:15:02;9.50;;;2.53;;
50549;SDS011;36505;52.512;13.460;2023-06-22T08:17:28;6.38;;;2.40;;
50549;SDS011;36505;52.512;13.460;2023-06-22T08:19:53;4.13;;;2.28;;
50549;SDS011;36505;52.512;13.460;2023-06-22T08:22:18;6.45;;;2.17;;
50549;SDS011;36505;52.512;13.460;2023-06-22T08:24:44;11.95;;;2.53;;
50549;SDS011;36505;52.512;13.460;2023-06-22T08:27:10;4.18;;;2.30;;
50549;SDS011;36505;52.512;13.460;2023-06-22T08:29:39;4.60;;;2.35;;
50549;SDS011;36505;52.512;13.460;2023-06-22T08:32:07;7.45;;;2.65;;
50549;SDS011;36505;52.512;13.460;2023-06-22T08:34:36;6.22;;;2.47;;
50549;SDS011;36505;52.512;13.460;2023-06-22T08:37:01;6.22;;;2.80;;
50549;SDS011;36505;52.512;13.460;2023-06-22T08:39:31;4.63;;;2.63;;
50549;SDS011;36505;52.512;13.460;2023-06-22T08:41:56;4.07;;;2.72;;
50549;SDS011;36505;52.512;13.460;2023-06-22T08:44:22;9.90;;;3.22;;
50549;SDS011;36505;52.512;13.460;2023-06-22T08:46:47;5.65;;;3.03;;
50549;SDS011;36505;52.512;13.460;2023-06-22T08:49:13;8.30;;;2.80;;
50549;SDS011;36505;52.512;13.460;2023-06-22T08:51:38;7.13;;;2.95;;
50549;SDS011;36505;52.512;13.460;2023-06-22T08:54:03;5.05;;;3.05;;
50549;SDS011;36505;52.512;13.460;2023-06-22T08:56:29;4.28;;;2.80;;
50549;SDS011;36505;52.512;13.460;2023-06-22T08:58:55;11.77;;;3.47;;
50549;SDS011;36505;52.512;13.460;2023-06-22T09:01:21;4.20;;;2.75;;
50549;SDS011;36505;52.512;13.460;2023-06-22T09:03:47;4.22;;;2.78;;
50549;SDS011;36505;52.512;13.460;2023-06-22T09:06:19;3.88;;;2.58;;
50549;SDS011;36505;52.512;13.460;2023-06-22T09:08:45;4.28;;;2.92;;
50549;SDS011;36505;52.512;13.460;2023-06-22T09:11:12;5.60;;;3.00;;
50549;SDS011;36505;52.512;13.460;2023-06-22T09:13:37;8.43;;;3.00;;
50549;SDS011;36505;52.512;13.460;2023-06-22T09:16:02;5.65;;;2.60;;
50549;SDS011;36505;52.512;13.460;2023-06-22T09:18:28;3.80;;;2.35;;
50549;SDS011;36505;52.512;13.460;2023-06-22T09:20:53;3.42;;;2.20;;
50549;SDS011;36505;52.512;13.460;2023-06-22T09:23:19;5.43;;;2.72;;
50549;SDS011;36505;52.512;13.460;2023-06-22T09:25:44;3.67;;;2.35;;
50549;SDS011;36505;52.512;13.460;2023-06-22T09:28:11;4.50;;;2.90;;
50549;SDS011;36505;52.512;13.460;2023-06-22T09:30:37;5.18;;;2.83;;
50549;SDS011;36505;52.512;13.460;2023-06-22T09:33:02;6.07;;;2.15;;
50549;SDS011;36505;52.512;13.460;2023-06-22T09:35:28;7.13;;;2.67;;
50549;SDS011;36505;52.512;13.460;2023-06-22T09:37:53;6.78;;;2.88;;
50549;SDS011;36505;52.512;13.460;2023-06-22T09:40:18;6.20;;;2.92;;
50549;SDS011;36505;52.512;13.460;2023-06-22T09:42:45;5.68;;;2.90;;
50549;SDS011;36505;52.512;13.460;2023-06-22T09:45:10;3.55;;;2.67;;
50549;SDS011;36505;52.512;13.460;2023-06-22T09:47:36;4.80;;;2.88;;
50549;SDS011;36505;52.512;13.460;2023-06-22T09:50:01;5.28;;;2.58;;
50549;SDS011;36505;52.512;13.460;2023-06-22T09:52:27;4.07;;;2.60;;
50549;SDS011;36505;52.512;13.460;2023-06-22T09:54:52;6.95;;;2.90;;
50549;SDS011;36505;52.512;13.460;2023-06-22T09:57:18;5.95;;;3.30;;
50549;SDS011;36505;52.512;13.460;2023-06-22T09:59:43;4.93;;;2.50;;
50549;SDS011;36505;52.512;13.460;2023-06-22T10:02:08;4.65;;;2.63;;
50549;SDS011;36505;52.512;13.460;2023-06-22T10:04:34;2.92;;;2.25;;
50549;SDS011;36505;52.512;13.460;2023-06-22T10:07:00;4.53;;;2.88;;
50549;SDS011;36505;52.512;13.460;2023-06-22T10:09:26;6.72;;;3.40;;
50549;SDS011;36505;52.512;13.460;2023-06-22T10:11:52;4.88;;;2.60;;
50549;SDS011;36505;52.512;13.460;2023-06-22T10:14:17;4.85;;;3.17;;
50549;SDS011;36505;52.512;13.460;2023-06-22T10:16:43;4.28;;;2.72;;
50549;SDS011;36505;52.512;13.460;2023-06-22T10:19:08;4.05;;;2.75;;
50549;SDS011;36505;52.512;13.460;2023-06-22T10:21:34;7.95;;;2.90;;
50549;SDS011;36505;52.512;13.460;2023-06-22T10:23:59;5.07;;;2.80;;
50549;SDS011;36505;52.512;13.460;2023-06-22T10:26:30;8.00;;;3.40;;
50549;SDS011;36505;52.512;13.460;2023-06-22T10:28:59;4.35;;;3.10;;
50549;SDS011;36505;52.512;13.460;2023-06-22T10:31:25;6.25;;;3.05;;
50549;SDS011;36505;52.512;13.460;2023-06-22T10:33:50;5.40;;;2.72;;
50549;SDS011;36505;52.512;13.460;2023-06-22T10:36:16;5.07;;;3.53;;
50549;SDS011;36505;52.512;13.460;2023-06-22T10:38:41;3.78;;;2.80;;
50549;SDS011;36505;52.512;13.460;2023-06-22T10:41:06;4.93;;;2.67;;
50549;SDS011;36505;52.512;13.460;2023-06-22T10:43:32;8.23;;;2.63;;
50549;SDS011;36505;52.512;13.460;2023-06-22T10:45:57;3.83;;;2.75;;
50549;SDS011;36505;52.512;13.460;2023-06-22T10:48:23;4.85;;;2.30;;
50549;SDS011;36505;52.512;13.460;2023-06-22T10:50:48;4.90;;;2.80;;
50549;SDS011;36505;52.512;13.460;2023-06-22T10:53:13;4.55;;;2.80;;
50549;SDS011;36505;52.512;13.460;2023-06-22T10:55:39;8.43;;;3.45;;
50549;SDS011;36505;52.512;13.460;2023-06-22T10:58:04;5.45;;;3.28;;
50549;SDS011;36505;52.512;13.460;2023-06-22T11:00:29;5.15;;;3.20;;
50549;SDS011;36505;52.512;13.460;2023-06-22T11:02:55;7.45;;;3.63;;
50549;SDS011;36505;52.512;13.460;2023-06-22T11:05:20;4.35;;;3.05;;
50549;SDS011;36505;52.512;13.460;2023-06-22T11:07:46;5.72;;;2.90;;
50549;SDS011;36505;52.512;13.460;2023-06-22T11:10:11;3.20;;;2.55;;
50549;SDS011;36505;52.512;13.460;2023-06-22T11:12:38;5.65;;;3.58;;
50549;SDS011;36505;52.512;13.460;2023-06-22T11:15:03;5.95;;;4.15;;
50549;SDS011;36505;52.512;13.460;2023-06-22T11:17:29;5.75;;;2.90;;
50549;SDS011;36505;52.512;13.460;2023-06-22T11:19:55;3.40;;;2.42;;
50549;SDS011;36505;52.512;13.460;2023-06-22T11:22:20;4.97;;;2.85;;
50549;SDS011;36505;52.512;13.460;2023-06-22T11:24:45;5.38;;;3.60;;
50549;SDS011;36505;52.512;13.460;2023-06-22T11:27:11;5.30;;;2.95;;
50549;SDS011;36505;52.512;13.460;2023-06-22T11:29:36;5.25;;;2.83;;
50549;SDS011;36505;52.512;13.460;2023-06-22T11:32:03;6.13;;;3.40;;
50549;SDS011;36505;52.512;13.460;2023-06-22T11:34:29;4.32;;;2.70;;
50549;SDS011;36505;52.512;13.460;2023-06-22T11:36:55;6.68;;;2.80;;
50549;SDS011;36505;52.512;13.460;2023-06-22T11:39:20;4.90;;;3.25;;
50549;SDS011;36505;52.512;13.460;2023-06-22T11:41:45;7.63;;;3.03;;
50549;SDS011;36505;52.512;13.460;2023-06-22T11:44:11;4.25;;;2.90;;
50549;SDS011;36505;52.512;13.460;2023-06-22T11:46:36;4.40;;;2.78;;
50549;SDS011;36505;52.512;13.460;2023-06-22T11:49:01;4.53;;;2.85;;
50549;SDS011;36505;52.512;13.460;2023-06-22T11:51:27;5.28;;;3.08;;
50549;SDS011;36505;52.512;13.460;2023-06-22T11:53:53;5.00;;;2.60;;
50549;SDS011;36505;52.512;13.460;2023-06-22T11:56:18;6.00;;;2.88;;
50549;SDS011;36505;52.512;13.460;2023-06-22T11:58:44;5.55;;;3.05;;
50549;SDS011;36505;52.512;13.460;2023-06-22T12:01:09;4.88;;;2.92;;
50549;SDS011;36505;52.512;13.460;2023-06-22T12:03:34;7.30;;;3.15;;
50549;SDS011;36505;52.512;13.460;2023-06-22T12:06:00;5.88;;;3.33;;
50549;SDS011;36505;52.512;13.460;2023-06-22T12:08:25;6.00;;;2.80;;
50549;SDS011;36505;52.512;13.460;2023-06-22T12:10:51;4.53;;;3.33;;
50549;SDS011;36505;52.512;13.460;2023-06-22T12:13:16;4.57;;;2.85;;
50549;SDS011;36505;52.512;13.460;2023-06-22T12:15:42;6.53;;;3.30;;
50549;SDS011;36505;52.512;13.460;2023-06-22T12:18:07;4.32;;;3.03;;
50549;SDS011;36505;52.512;13.460;2023-06-22T12:20:34;4.03;;;2.80;;
50549;SDS011;36505;52.512;13.460;2023-06-22T12:22:59;7.28;;;3.28;;
50549;SDS011;36505;52.512;13.460;2023-06-22T12:25:25;5.40;;;2.97;;
50549;SDS011;36505;52.512;13.460;2023-06-22T12:27:50;5.25;;;3.13;;
50549;SDS011;36505;52.512;13.460;2023-06-22T12:30:15;5.10;;;3.60;;
50549;SDS011;36505;52.512;13.460;2023-06-22T12:32:41;7.43;;;3.35;;
50549;SDS011;36505;52.512;13.460;2023-06-22T12:35:07;6.85;;;3.20;;
50549;SDS011;36505;52.512;13.460;2023-06-22T12:37:37;5.68;;;3.13;;
50549;SDS011;36505;52.512;13.460;2023-06-22T12:40:02;7.78;;;4.13;;
50549;SDS011;36505;52.512;13.460;2023-06-22T12:42:29;4.80;;;3.03;;
50549;SDS011;36505;52.512;13.460;2023-06-22T12:44:54;7.13;;;3.78;;
50549;SDS011;36505;52.512;13.460;2023-06-22T12:47:19;7.50;;;3.15;;
50549;SDS011;36505;52.512;13.460;2023-06-22T12:49:45;4.95;;;3.17;;
50549;SDS011;36505;52.512;13.460;2023-06-22T12:52:10;4.72;;;3.47;;
50549;SDS011;36505;52.512;13.460;2023-06-22T12:54:36;7.35;;;3.70;;
50549;SDS011;36505;52.512;13.460;2023-06-22T12:57:02;7.00;;;3.67;;
50549;SDS011;36505;52.512;13.460;2023-06-22T12:59:27;6.93;;;3.42;;
50549;SDS011;36505;52.512;13.460;2023-06-22T13:01:52;7.47;;;3.30;;
50549;SDS011;36505;52.512;13.460;2023-06-22T13:04:18;7.45;;;3.60;;
50549;SDS011;36505;52.512;13.460;2023-06-22T13:06:46;6.85;;;3.72;;
50549;SDS011;36505;52.512;13.460;2023-06-22T13:09:13;7.78;;;3.20;;
50549;SDS011;36505;52.512;13.460;2023-06-22T13:11:39;6.78;;;3.65;;
50549;SDS011;36505;52.512;13.460;2023-06-22T13:14:05;6.97;;;3.70;;
50549;SDS011;36505;52.512;13.460;2023-06-22T13:16:30;4.43;;;2.97;;
50549;SDS011;36505;52.512;13.460;2023-06-22T13:18:56;8.77;;;2.70;;
50549;SDS011;36505;52.512;13.460;2023-06-22T13:21:21;3.85;;;3.03;;
50549;SDS011;36505;52.512;13.460;2023-06-22T13:23:46;6.10;;;3.95;;
50549;SDS011;36505;52.512;13.460;2023-06-22T13:26:12;3.80;;;3.00;;
50549;SDS011;36505;52.512;13.460;2023-06-22T13:28:38;7.88;;;3.65;;
50549;SDS011;36505;52.512;13.460;2023-06-22T13:31:03;4.13;;;2.88;;
50549;SDS011;36505;52.512;13.460;2023-06-22T13:33:28;4.88;;;3.70;;
50549;SDS011;36505;52.512;13.460;2023-06-22T13:35:54;5.13;;;3.38;;
50549;SDS011;36505;52.512;13.460;2023-06-22T13:38:19;5.43;;;3.33;;
50549;SDS011;36505;52.512;13.460;2023-06-22T13:40:45;4.43;;;3.30;;
50549;SDS011;36505;52.512;13.460;2023-06-22T13:43:10;8.15;;;4.13;;
50549;SDS011;36505;52.512;13.460;2023-06-22T13:45:35;5.65;;;3.53;;
50549;SDS011;36505;52.512;13.460;2023-06-22T13:48:01;5.53;;;3.38;;
50549;SDS011;36505;52.512;13.460;2023-06-22T13:50:26;5.72;;;3.60;;
50549;SDS011;36505;52.512;13.460;2023-06-22T13:52:52;6.40;;;4.80;;
50549;SDS011;36505;52.512;13.460;2023-06-22T13:55:17;6.75;;;3.60;;
50549;SDS011;36505;52.512;13.460;2023-06-22T13:57:44;8.13;;;4.32;;
50549;SDS011;36505;52.512;13.460;2023-06-22T14:00:10;7.70;;;3.95;;
50549;SDS011;36505;52.512;13.460;2023-06-22T14:02:37;4.85;;;3.80;;
50549;SDS011;36505;52.512;13.460;2023-06-22T14:05:03;5.82;;;3.90;;
50549;SDS011;36505;52.512;13.460;2023-06-22T14:07:28;6.90;;;4.13;;
50549;SDS011;36505;52.512;13.460;2023-06-22T14:09:54;5.75;;;3.50;;
50549;SDS011;36505;52.512;13.460;2023-06-22T14:12:19;5.22;;;3.80;;
50549;SDS011;36505;52.512;13.460;2023-06-22T14:14:44;8.18;;;4.28;;
50549;SDS011;36505;52.512;13.460;2023-06-22T14:17:10;5.57;;;3.83;;
50549;SDS011;36505;52.512;13.460;2023-06-22T14:19:35;5.35;;;3.85;;
50549;SDS011;36505;52.512;13.460;2023-06-22T14:22:01;4.65;;;3.42;;
50549;SDS011;36505;52.512;13.460;2023-06-22T14:24:27;6.43;;;3.83;;
50549;SDS011;36505;52.512;13.460;2023-06-22T14:26:52;9.38;;;3.90;;
50549;SDS011;36505;52.512;13.460;2023-06-22T14:29:18;7.57;;;3.80;;
50549;SDS011;36505;52.512;13.460;2023-06-22T14:31:44;4.35;;;3.22;;